sensor_id;sensor_type;location;lat;lon;timestamp;pressure;altitude;pressure_sealevel;temperature;humidity
38452;BME280;24231;52.514;13.438;2022-11-20T00:03:03;100693.66;;;0.79;80.41
38452;BME280;24231;52.514;13.438;2022-11-20T00:05:32;100692.15;;;0.92;77.75
38452;BME280;24231;52.514;13.438;2022-11-20T00:08:00;100690.73;;;1.44;76.83
38452;BME280;24231;52.514;13.438;2022-11-20T00:10:27;100689.11;;;1.98;74.84
38452;BME280;24231;52.514;13.438;2022-11-20T00:12:54;100683.69;;;2.18;71.95
38452;BME280;24231;52.514;13.438;2022-11-20T00:15:22;100685.29;;;0.98;76.59
38452;BME280;24231;52.514;13.438;2022-11-20T00:17:49;100685.57;;;0.44;80.36
38452;BME280;24231;52.514;13.438;2022-11-20T00:20:17;100682.76;;;2.25;73.81
38452;BME280;24231;52.514;13.438;2022-11-20T00:22:44;100687.27;;;0.86;79.02
38452;BME280;24231;52.514;13.438;2022-11-20T00:25:11;100683.95;;;2.08;72.51
38452;BME280;24231;52.514;13.438;2022-11-20T00:27:44;100688.63;;;1.65;75.49
38452;BME280;24231;52.514;13.438;2022-11-20T00:30:11;100687.51;;;1.46;75.52
38452;BME280;24231;52.514;13.438;2022-11-20T00:32:38;100687.86;;;2.00;73.83
38452;BME280;24231;52.514;13.438;2022-11-20T00:35:07;100687.73;;;1.89;74.41
38452;BME280;24231;52.514;13.438;2022-11-20T00:37:34;100689.21;;;1.83;73.97
38452;BME280;24231;52.514;13.438;2022-11-20T00:40:02;100690.41;;;2.09;72.22
38452;BME280;24231;52.514;13.438;2022-11-20T00:42:29;100690.09;;;2.47;72.02
38452;BME280;24231;52.514;13.438;2022-11-20T00:44:55;100689.38;;;2.49;72.03
38452;BME280;24231;52.514;13.438;2022-11-20T00:47:22;100692.56;;;2.41;71.65
38452;BME280;24231;52.514;13.438;2022-11-20T00:49:49;100688.55;;;1.95;73.30
38452;BME280;24231;52.514;13.438;2022-11-20T00:52:16;100686.08;;;2.05;72.07
38452;BME280;24231;52.514;13.438;2022-11-20T00:54:44;100688.59;;;1.05;75.70
38452;BME280;24231;52.514;13.438;2022-11-20T00:57:11;100687.40;;;1.84;74.66
38452;BME280;24231;52.514;13.438;2022-11-20T00:59:38;100683.06;;;2.90;70.32
38452;BME280;24231;52.514;13.438;2022-11-20T01:02:06;100689.99;;;1.52;75.52
38452;BME280;24231;52.514;13.438;2022-11-20T01:04:33;100685.09;;;2.31;72.17
38452;BME280;24231;52.514;13.438;2022-11-20T01:07:01;100686.48;;;2.44;71.80
38452;BME280;24231;52.514;13.438;2022-11-20T01:09:28;100687.34;;;2.18;71.96
38452;BME280;24231;52.514;13.438;2022-11-20T01:11:55;100687.03;;;2.11;72.21
38452;BME280;24231;52.514;13.438;2022-11-20T01:14:22;100687.64;;;1.88;74.07
38452;BME280;24231;52.514;13.438;2022-11-20T01:16:50;100691.83;;;1.66;72.45
38452;BME280;24231;52.514;13.438;2022-11-20T01:19:19;100691.01;;;1.66;75.19
38452;BME280;24231;52.514;13.438;2022-11-20T01:21:49;100689.31;;;1.41;74.87
38452;BME280;24231;52.514;13.438;2022-11-20T01:24:18;100680.68;;;2.57;70.97
38452;BME280;24231;52.514;13.438;2022-11-20T01:26:48;100680.17;;;0.79;77.67
38452;BME280;24231;52.514;13.438;2022-11-20T01:29:18;100677.32;;;2.18;72.74
38452;BME280;24231;52.514;13.438;2022-11-20T01:31:45;100676.80;;;0.67;77.79
38452;BME280;24231;52.514;13.438;2022-11-20T01:34:14;100673.39;;;1.85;74.22
38452;BME280;24231;52.514;13.438;2022-11-20T01:36:42;100675.56;;;1.35;74.06
38452;BME280;24231;52.514;13.438;2022-11-20T01:39:13;100672.90;;;2.91;69.02
38452;BME280;24231;52.514;13.438;2022-11-20T01:41:40;100674.29;;;2.94;67.03
38452;BME280;24231;52.514;13.438;2022-11-20T01:44:11;100674.26;;;2.73;66.92
38452;BME280;24231;52.514;13.438;2022-11-20T01:46:42;100673.44;;;2.92;67.53
38452;BME280;24231;52.514;13.438;2022-11-20T01:49:14;100672.84;;;1.73;69.90
38452;BME280;24231;52.514;13.438;2022-11-20T01:51:47;100671.80;;;1.67;72.35
38452;BME280;24231;52.514;13.438;2022-11-20T01:54:18;100674.51;;;1.17;74.03
38452;BME280;24231;52.514;13.438;2022-11-20T01:56:48;100669.77;;;1.62;72.26
38452;BME280;24231;52.514;13.438;2022-11-20T01:59:19;100669.65;;;0.99;74.47
38452;BME280;24231;52.514;13.438;2022-11-20T02:01:47;100666.98;;;0.94;75.84
38452;BME280;24231;52.514;13.438;2022-11-20T02:04:15;100670.20;;;1.39;74.01
38452;BME280;24231;52.514;13.438;2022-11-20T02:09:29;100660.85;;;2.29;70.17
38452;BME280;24231;52.514;13.438;2022-11-20T02:11:56;100658.99;;;2.62;70.25
38452;BME280;24231;52.514;13.438;2022-11-20T02:14:26;100657.24;;;2.82;68.12
38452;BME280;24231;52.514;13.438;2022-11-20T02:16:55;100654.94;;;1.56;72.20
38452;BME280;24231;52.514;13.438;2022-11-20T02:19:26;100654.48;;;1.37;74.55
38452;BME280;24231;52.514;13.438;2022-11-20T02:22:00;100653.58;;;1.15;73.86
38452;BME280;24231;52.514;13.438;2022-11-20T02:24:29;100651.37;;;2.01;71.68
38452;BME280;24231;52.514;13.438;2022-11-20T02:26:59;100653.06;;;0.59;76.40
38452;BME280;24231;52.514;13.438;2022-11-20T02:29:39;100653.22;;;1.27;75.38
38452;BME280;24231;52.514;13.438;2022-11-20T02:32:18;100652.21;;;0.45;78.10
38452;BME280;24231;52.514;13.438;2022-11-20T02:34:45;100653.40;;;1.29;74.32
38452;BME280;24231;52.514;13.438;2022-11-20T02:37:13;100652.63;;;0.61;76.90
38452;BME280;24231;52.514;13.438;2022-11-20T02:39:41;100647.48;;;1.77;72.11
38452;BME280;24231;52.514;13.438;2022-11-20T02:42:09;100649.21;;;1.76;71.99
38452;BME280;24231;52.514;13.438;2022-11-20T02:44:37;100653.00;;;1.04;73.59
38452;BME280;24231;52.514;13.438;2022-11-20T02:47:04;100653.99;;;0.41;75.28
38452;BME280;24231;52.514;13.438;2022-11-20T02:49:32;100652.49;;;0.81;74.28
38452;BME280;24231;52.514;13.438;2022-11-20T02:51:59;100651.43;;;1.11;73.02
38452;BME280;24231;52.514;13.438;2022-11-20T02:54:26;100649.78;;;1.20;73.39
38452;BME280;24231;52.514;13.438;2022-11-20T02:56:53;100650.35;;;0.92;73.34
38452;BME280;24231;52.514;13.438;2022-11-20T02:59:20;100649.68;;;1.31;72.06
38452;BME280;24231;52.514;13.438;2022-11-20T03:01:48;100651.49;;;0.42;75.84
38452;BME280;24231;52.514;13.438;2022-11-20T03:04:15;100648.89;;;0.63;73.94
38452;BME280;24231;52.514;13.438;2022-11-20T03:06:42;100647.97;;;1.20;72.70
38452;BME280;24231;52.514;13.438;2022-11-20T03:09:09;100647.96;;;1.22;72.67
38452;BME280;24231;52.514;13.438;2022-11-20T03:11:37;100639.10;;;1.87;70.35
38452;BME280;24231;52.514;13.438;2022-11-20T03:14:04;100643.83;;;1.44;70.84
38452;BME280;24231;52.514;13.438;2022-11-20T03:16:32;100639.65;;;1.56;69.60
38452;BME280;24231;52.514;13.438;2022-11-20T03:19:00;100639.02;;;1.27;71.88
38452;BME280;24231;52.514;13.438;2022-11-20T03:21:27;100630.09;;;2.75;66.20
38452;BME280;24231;52.514;13.438;2022-11-20T03:23:55;100629.27;;;2.67;65.76
38452;BME280;24231;52.514;13.438;2022-11-20T03:26:24;100628.71;;;2.76;66.59
38452;BME280;24231;52.514;13.438;2022-11-20T03:28:53;100627.86;;;2.77;65.56
38452;BME280;24231;52.514;13.438;2022-11-20T03:31:22;100627.69;;;3.03;65.29
38452;BME280;24231;52.514;13.438;2022-11-20T03:33:50;100625.75;;;2.02;68.31
38452;BME280;24231;52.514;13.438;2022-11-20T03:36:19;100627.79;;;1.22;71.70
38452;BME280;24231;52.514;13.438;2022-11-20T03:38:47;100624.16;;;2.52;66.54
38452;BME280;24231;52.514;13.438;2022-11-20T03:41:17;100625.68;;;1.23;69.73
38452;BME280;24231;52.514;13.438;2022-11-20T03:43:48;100627.05;;;1.18;71.93
38452;BME280;24231;52.514;13.438;2022-11-20T03:46:15;100626.78;;;1.27;70.99
38452;BME280;24231;52.514;13.438;2022-11-20T03:48:43;100617.40;;;2.11;67.23
38452;BME280;24231;52.514;13.438;2022-11-20T03:51:11;100621.28;;;0.88;71.56
38452;BME280;24231;52.514;13.438;2022-11-20T03:53:40;100622.90;;;1.45;71.19
38452;BME280;24231;52.514;13.438;2022-11-20T03:56:08;100620.91;;;2.67;65.83
38452;BME280;24231;52.514;13.438;2022-11-20T03:58:38;100622.58;;;1.94;69.18
38452;BME280;24231;52.514;13.438;2022-11-20T04:01:06;100622.26;;;1.59;69.82
38452;BME280;24231;52.514;13.438;2022-11-20T04:03:34;100622.65;;;0.62;72.66
38452;BME280;24231;52.514;13.438;2022-11-20T04:06:03;100623.23;;;0.68;72.94
38452;BME280;24231;52.514;13.438;2022-11-20T04:08:31;100622.12;;;1.37;72.27
38452;BME280;24231;52.514;13.438;2022-11-20T04:11:09;100617.70;;;1.31;70.84
38452;BME280;24231;52.514;13.438;2022-11-20T04:13:36;100617.68;;;1.02;73.05
38452;BME280;24231;52.514;13.438;2022-11-20T04:16:04;100618.39;;;1.37;71.61
38452;BME280;24231;52.514;13.438;2022-11-20T04:18:32;100618.20;;;0.43;74.27
38452;BME280;24231;52.514;13.438;2022-11-20T04:20:59;100618.91;;;0.91;74.04
38452;BME280;24231;52.514;13.438;2022-11-20T04:23:27;100621.68;;;1.00;73.82
38452;BME280;24231;52.514;13.438;2022-11-20T04:25:54;100617.39;;;1.84;69.81
38452;BME280;24231;52.514;13.438;2022-11-20T04:28:22;100618.80;;;1.53;69.30
38452;BME280;24231;52.514;13.438;2022-11-20T04:30:49;100617.18;;;1.48;71.09
38452;BME280;24231;52.514;13.438;2022-11-20T04:33:16;100624.23;;;1.76;70.33
38452;BME280;24231;52.514;13.438;2022-11-20T04:35:44;100626.78;;;1.37;70.70
38452;BME280;24231;52.514;13.438;2022-11-20T04:38:14;100620.56;;;1.48;69.12
38452;BME280;24231;52.514;13.438;2022-11-20T04:40:41;100618.17;;;1.34;69.51
38452;BME280;24231;52.514;13.438;2022-11-20T04:43:08;100613.46;;;1.61;68.44
38452;BME280;24231;52.514;13.438;2022-11-20T04:45:35;100615.27;;;1.18;68.85
38452;BME280;24231;52.514;13.438;2022-11-20T04:48:02;100609.71;;;0.98;70.05
38452;BME280;24231;52.514;13.438;2022-11-20T04:50:29;100603.83;;;1.77;68.22
38452;BME280;24231;52.514;13.438;2022-11-20T04:52:56;100605.02;;;1.78;68.00
38452;BME280;24231;52.514;13.438;2022-11-20T04:55:23;100609.77;;;1.69;68.58
38452;BME280;24231;52.514;13.438;2022-11-20T04:57:50;100606.69;;;2.39;65.61
38452;BME280;24231;52.514;13.438;2022-11-20T05:00:17;100609.21;;;1.29;68.60
38452;BME280;24231;52.514;13.438;2022-11-20T05:02:44;100602.67;;;1.26;69.38
38452;BME280;24231;52.514;13.438;2022-11-20T05:05:11;100599.85;;;1.23;68.83
38452;BME280;24231;52.514;13.438;2022-11-20T05:07:38;100596.32;;;0.76;70.74
38452;BME280;24231;52.514;13.438;2022-11-20T05:10:07;100591.92;;;1.54;68.10
38452;BME280;24231;52.514;13.438;2022-11-20T05:12:34;100587.58;;;1.21;70.62
38452;BME280;24231;52.514;13.438;2022-11-20T05:15:02;100588.56;;;0.44;71.47
38452;BME280;24231;52.514;13.438;2022-11-20T05:17:29;100581.73;;;1.34;69.86
38452;BME280;24231;52.514;13.438;2022-11-20T05:19:56;100579.13;;;1.43;69.26
38452;BME280;24231;52.514;13.438;2022-11-20T05:22:24;100578.06;;;0.76;71.35
38452;BME280;24231;52.514;13.438;2022-11-20T05:24:51;100579.93;;;1.00;71.54
38452;BME280;24231;52.514;13.438;2022-11-20T05:27:18;100578.46;;;1.01;70.77
38452;BME280;24231;52.514;13.438;2022-11-20T05:29:45;100578.20;;;0.55;73.35
38452;BME280;24231;52.514;13.438;2022-11-20T05:32:12;100576.31;;;1.44;68.31
38452;BME280;24231;52.514;13.438;2022-11-20T05:34:40;100576.90;;;1.66;68.27
38452;BME280;24231;52.514;13.438;2022-11-20T05:37:07;100579.95;;;1.46;68.60
38452;BME280;24231;52.514;13.438;2022-11-20T05:39:34;100580.63;;;1.18;68.92
38452;BME280;24231;52.514;13.438;2022-11-20T05:42:01;100577.22;;;1.95;67.36
38452;BME280;24231;52.514;13.438;2022-11-20T05:44:29;100577.96;;;2.32;65.71
38452;BME280;24231;52.514;13.438;2022-11-20T05:46:55;100570.56;;;1.70;68.35
38452;BME280;24231;52.514;13.438;2022-11-20T05:49:23;100572.09;;;2.66;64.51
38452;BME280;24231;52.514;13.438;2022-11-20T05:51:50;100568.23;;;1.69;68.64
38452;BME280;24231;52.514;13.438;2022-11-20T05:54:17;100568.37;;;2.79;64.55
38452;BME280;24231;52.514;13.438;2022-11-20T05:56:45;100568.42;;;2.29;65.16
38452;BME280;24231;52.514;13.438;2022-11-20T05:59:13;100567.09;;;1.74;66.91
38452;BME280;24231;52.514;13.438;2022-11-20T06:01:40;100570.58;;;1.51;69.41
38452;BME280;24231;52.514;13.438;2022-11-20T06:04:07;100568.19;;;1.70;69.24
38452;BME280;24231;52.514;13.438;2022-11-20T06:06:35;100565.95;;;1.96;68.36
38452;BME280;24231;52.514;13.438;2022-11-20T06:09:03;100566.84;;;2.72;64.50
38452;BME280;24231;52.514;13.438;2022-11-20T06:11:30;100564.86;;;2.63;63.98
38452;BME280;24231;52.514;13.438;2022-11-20T06:13:57;100564.05;;;2.33;64.49
38452;BME280;24231;52.514;13.438;2022-11-20T06:16:24;100558.50;;;3.28;61.94
38452;BME280;24231;52.514;13.438;2022-11-20T06:18:51;100556.01;;;3.67;60.79
38452;BME280;24231;52.514;13.438;2022-11-20T06:21:21;100564.95;;;2.32;64.28
38452;BME280;24231;52.514;13.438;2022-11-20T06:23:50;100565.55;;;1.81;66.17
38452;BME280;24231;52.514;13.438;2022-11-20T06:26:19;100566.27;;;2.89;62.81
38452;BME280;24231;52.514;13.438;2022-11-20T06:28:47;100564.89;;;2.19;66.44
38452;BME280;24231;52.514;13.438;2022-11-20T06:31:16;100562.43;;;1.76;67.51
38452;BME280;24231;52.514;13.438;2022-11-20T06:33:44;100561.25;;;1.79;66.39
38452;BME280;24231;52.514;13.438;2022-11-20T06:36:13;100559.72;;;3.27;61.51
38452;BME280;24231;52.514;13.438;2022-11-20T06:38:41;100559.44;;;3.70;60.42
38452;BME280;24231;52.514;13.438;2022-11-20T06:41:11;100565.39;;;3.07;62.38
38452;BME280;24231;52.514;13.438;2022-11-20T06:43:39;100568.16;;;2.76;62.15
38452;BME280;24231;52.514;13.438;2022-11-20T06:46:06;100568.96;;;2.76;63.07
38452;BME280;24231;52.514;13.438;2022-11-20T06:48:33;100557.14;;;3.63;60.21
38452;BME280;24231;52.514;13.438;2022-11-20T06:51:03;100556.07;;;3.49;59.45
38452;BME280;24231;52.514;13.438;2022-11-20T06:53:31;100561.96;;;0.84;69.25
38452;BME280;24231;52.514;13.438;2022-11-20T06:55:58;100561.88;;;2.68;63.92
38452;BME280;24231;52.514;13.438;2022-11-20T06:58:27;100560.40;;;1.29;69.02
38452;BME280;24231;52.514;13.438;2022-11-20T07:00:58;100558.69;;;2.29;63.62
38452;BME280;24231;52.514;13.438;2022-11-20T07:03:26;100562.13;;;0.70;71.66
38452;BME280;24231;52.514;13.438;2022-11-20T07:05:54;100560.87;;;1.02;69.98
38452;BME280;24231;52.514;13.438;2022-11-20T07:08:22;100553.06;;;1.59;68.46
38452;BME280;24231;52.514;13.438;2022-11-20T07:10:49;100551.97;;;2.55;64.84
38452;BME280;24231;52.514;13.438;2022-11-20T07:13:16;100554.06;;;1.35;69.24
38452;BME280;24231;52.514;13.438;2022-11-20T07:15:44;100550.72;;;1.78;68.10
38452;BME280;24231;52.514;13.438;2022-11-20T07:18:11;100554.40;;;2.19;66.49
38452;BME280;24231;52.514;13.438;2022-11-20T07:20:39;100555.78;;;2.63;65.04
38452;BME280;24231;52.514;13.438;2022-11-20T07:23:06;100556.49;;;2.08;65.51
38452;BME280;24231;52.514;13.438;2022-11-20T07:25:33;100555.90;;;2.70;64.07
38452;BME280;24231;52.514;13.438;2022-11-20T07:28:00;100558.08;;;0.83;69.01
38452;BME280;24231;52.514;13.438;2022-11-20T07:30:29;100558.63;;;1.10;69.10
38452;BME280;24231;52.514;13.438;2022-11-20T07:32:56;100556.93;;;1.55;67.76
38452;BME280;24231;52.514;13.438;2022-11-20T07:35:24;100560.11;;;2.48;64.90
38452;BME280;24231;52.514;13.438;2022-11-20T07:37:52;100561.97;;;1.11;70.54
38452;BME280;24231;52.514;13.438;2022-11-20T07:40:19;100558.04;;;1.36;68.36
38452;BME280;24231;52.514;13.438;2022-11-20T07:42:48;100553.37;;;2.24;64.67
38452;BME280;24231;52.514;13.438;2022-11-20T07:45:15;100554.28;;;2.14;65.45
38452;BME280;24231;52.514;13.438;2022-11-20T07:47:43;100556.57;;;1.14;69.86
38452;BME280;24231;52.514;13.438;2022-11-20T07:50:10;100554.95;;;2.20;65.26
38452;BME280;24231;52.514;13.438;2022-11-20T07:52:38;100552.85;;;1.19;67.51
38452;BME280;24231;52.514;13.438;2022-11-20T07:55:07;100546.25;;;2.18;63.78
38452;BME280;24231;52.514;13.438;2022-11-20T07:57:34;100546.97;;;1.35;66.89
38452;BME280;24231;52.514;13.438;2022-11-20T08:00:02;100551.58;;;1.35;67.78
38452;BME280;24231;52.514;13.438;2022-11-20T08:02:29;100550.22;;;1.19;67.47
38452;BME280;24231;52.514;13.438;2022-11-20T08:04:57;100551.57;;;0.38;70.29
38452;BME280;24231;52.514;13.438;2022-11-20T08:07:24;100551.68;;;0.69;69.20
38452;BME280;24231;52.514;13.438;2022-11-20T08:09:51;100546.89;;;-0.37;74.81
38452;BME280;24231;52.514;13.438;2022-11-20T08:12:20;100548.47;;;-0.14;73.35
38452;BME280;24231;52.514;13.438;2022-11-20T08:14:48;100545.34;;;0.63;70.83
38452;BME280;24231;52.514;13.438;2022-11-20T08:17:15;100546.25;;;-0.07;73.78
38452;BME280;24231;52.514;13.438;2022-11-20T08:19:42;100542.20;;;1.35;68.04
38452;BME280;24231;52.514;13.438;2022-11-20T08:22:10;100542.97;;;0.88;68.19
38452;BME280;24231;52.514;13.438;2022-11-20T08:24:38;100538.83;;;2.17;63.72
38452;BME280;24231;52.514;13.438;2022-11-20T08:27:05;100540.77;;;0.99;67.95
38452;BME280;24231;52.514;13.438;2022-11-20T08:29:32;100536.90;;;1.20;68.35
38452;BME280;24231;52.514;13.438;2022-11-20T08:31:59;100536.89;;;0.10;71.79
38452;BME280;24231;52.514;13.438;2022-11-20T08:34:27;100533.07;;;-0.01;71.40
38452;BME280;24231;52.514;13.438;2022-11-20T08:36:54;100533.12;;;0.29;71.98
38452;BME280;24231;52.514;13.438;2022-11-20T08:39:21;100534.50;;;0.58;71.70
38452;BME280;24231;52.514;13.438;2022-11-20T08:41:48;100531.76;;;1.13;69.56
38452;BME280;24231;52.514;13.438;2022-11-20T08:44:16;100532.48;;;0.74;70.79
38452;BME280;24231;52.514;13.438;2022-11-20T08:46:42;100528.25;;;1.69;66.94
38452;BME280;24231;52.514;13.438;2022-11-20T08:49:11;100525.14;;;1.69;67.20
38452;BME280;24231;52.514;13.438;2022-11-20T08:51:39;100525.46;;;1.43;68.36
38452;BME280;24231;52.514;13.438;2022-11-20T08:54:07;100521.24;;;1.41;67.89
38452;BME280;24231;52.514;13.438;2022-11-20T08:56:35;100523.58;;;0.19;71.78
38452;BME280;24231;52.514;13.438;2022-11-20T08:59:03;100523.23;;;1.88;66.24
38452;BME280;24231;52.514;13.438;2022-11-20T09:01:30;100517.49;;;1.38;66.89
38452;BME280;24231;52.514;13.438;2022-11-20T09:03:57;100514.62;;;1.19;67.57
38452;BME280;24231;52.514;13.438;2022-11-20T09:06:25;100518.71;;;1.93;65.25
38452;BME280;24231;52.514;13.438;2022-11-20T09:08:52;100531.41;;;0.89;69.86
38452;BME280;24231;52.514;13.438;2022-11-20T09:11:19;100537.25;;;0.53;71.63
38452;BME280;24231;52.514;13.438;2022-11-20T09:13:46;100535.42;;;0.66;70.66
38452;BME280;24231;52.514;13.438;2022-11-20T09:16:13;100530.83;;;0.40;71.85
38452;BME280;24231;52.514;13.438;2022-11-20T09:18:41;100534.97;;;0.53;72.15
38452;BME280;24231;52.514;13.438;2022-11-20T09:21:12;100534.07;;;1.13;70.09
38452;BME280;24231;52.514;13.438;2022-11-20T09:23:40;100540.95;;;0.66;70.56
38452;BME280;24231;52.514;13.438;2022-11-20T09:26:10;100540.39;;;0.76;71.21
38452;BME280;24231;52.514;13.438;2022-11-20T09:28:39;100539.64;;;1.45;68.62
38452;BME280;24231;52.514;13.438;2022-11-20T09:31:07;100541.11;;;0.91;71.04
38452;BME280;24231;52.514;13.438;2022-11-20T09:33:35;100536.32;;;1.88;66.97
38452;BME280;24231;52.514;13.438;2022-11-20T09:36:03;100535.79;;;1.28;68.21
38452;BME280;24231;52.514;13.438;2022-11-20T09:38:30;100538.20;;;0.37;70.91
38452;BME280;24231;52.514;13.438;2022-11-20T09:41:02;100536.92;;;1.82;67.17
38452;BME280;24231;52.514;13.438;2022-11-20T09:43:42;100534.51;;;1.00;69.56
38452;BME280;24231;52.514;13.438;2022-11-20T09:46:20;100530.87;;;1.51;68.56
38452;BME280;24231;52.514;13.438;2022-11-20T09:49:02;100526.56;;;2.61;63.58
38452;BME280;24231;52.514;13.438;2022-11-20T09:51:39;100523.69;;;1.43;68.25
38452;BME280;24231;52.514;13.438;2022-11-20T09:54:16;100523.38;;;1.89;66.84
38452;BME280;24231;52.514;13.438;2022-11-20T09:56:46;100521.91;;;1.45;68.39
38452;BME280;24231;52.514;13.438;2022-11-20T09:59:27;100519.99;;;1.50;67.42
38452;BME280;24231;52.514;13.438;2022-11-20T10:01:57;100524.26;;;1.08;69.00
38452;BME280;24231;52.514;13.438;2022-11-20T10:04:25;100520.97;;;1.14;67.89
38452;BME280;24231;52.514;13.438;2022-11-20T10:06:59;100517.79;;;1.61;67.00
38452;BME280;24231;52.514;13.438;2022-11-20T10:09:30;100518.46;;;0.93;69.41
38452;BME280;24231;52.514;13.438;2022-11-20T10:12:11;100519.04;;;1.26;67.54
38452;BME280;24231;52.514;13.438;2022-11-20T10:14:52;100518.53;;;-0.21;72.58
38452;BME280;24231;52.514;13.438;2022-11-20T10:17:33;100513.35;;;0.49;71.50
38452;BME280;24231;52.514;13.438;2022-11-20T10:20:16;100508.81;;;0.31;71.26
38452;BME280;24231;52.514;13.438;2022-11-20T10:22:58;100505.08;;;0.82;68.77
38452;BME280;24231;52.514;13.438;2022-11-20T10:25:37;100504.70;;;0.70;70.68
38452;BME280;24231;52.514;13.438;2022-11-20T10:28:16;100506.40;;;0.42;70.66
38452;BME280;24231;52.514;13.438;2022-11-20T10:30:54;100501.12;;;2.24;64.81
38452;BME280;24231;52.514;13.438;2022-11-20T10:33:24;100502.34;;;1.17;67.56
38452;BME280;24231;52.514;13.438;2022-11-20T10:36:05;100499.83;;;0.68;69.60
38452;BME280;24231;52.514;13.438;2022-11-20T10:38:37;100495.56;;;0.64;70.12
38452;BME280;24231;52.514;13.438;2022-11-20T10:41:06;100486.40;;;2.03;64.96
38452;BME280;24231;52.514;13.438;2022-11-20T10:43:33;100482.72;;;0.73;69.68
38452;BME280;24231;52.514;13.438;2022-11-20T10:46:04;100486.64;;;1.79;66.89
38452;BME280;24231;52.514;13.438;2022-11-20T10:48:33;100482.71;;;1.78;65.69
38452;BME280;24231;52.514;13.438;2022-11-20T10:51:12;100477.66;;;2.19;63.90
38452;BME280;24231;52.514;13.438;2022-11-20T10:53:48;100477.15;;;1.79;65.86
38452;BME280;24231;52.514;13.438;2022-11-20T10:56:21;100476.96;;;1.78;66.14
38452;BME280;24231;52.514;13.438;2022-11-20T10:59:04;100472.99;;;1.19;68.28
38452;BME280;24231;52.514;13.438;2022-11-20T11:01:41;100475.71;;;2.22;65.27
38452;BME280;24231;52.514;13.438;2022-11-20T11:04:21;100478.10;;;2.35;64.64
38452;BME280;24231;52.514;13.438;2022-11-20T11:06:56;100476.49;;;1.18;68.85
38452;BME280;24231;52.514;13.438;2022-11-20T11:09:34;100479.05;;;1.58;67.82
38452;BME280;24231;52.514;13.438;2022-11-20T11:12:07;100478.71;;;2.42;65.01
38452;BME280;24231;52.514;13.438;2022-11-20T11:14:44;100473.97;;;2.83;63.50
38452;BME280;24231;52.514;13.438;2022-11-20T11:17:29;100475.09;;;2.92;62.25
38452;BME280;24231;52.514;13.438;2022-11-20T11:20:11;100479.23;;;1.85;65.27
38452;BME280;24231;52.514;13.438;2022-11-20T11:22:44;100475.45;;;2.73;62.97
38452;BME280;24231;52.514;13.438;2022-11-20T11:25:20;100471.69;;;1.92;64.97
38452;BME280;24231;52.514;13.438;2022-11-20T11:27:49;100468.34;;;1.48;67.87
38452;BME280;24231;52.514;13.438;2022-11-20T11:30:18;100468.13;;;2.89;63.31
38452;BME280;24231;52.514;13.438;2022-11-20T11:32:46;100472.00;;;2.00;64.65
38452;BME280;24231;52.514;13.438;2022-11-20T11:35:24;100469.85;;;1.91;65.65
38452;BME280;24231;52.514;13.438;2022-11-20T11:37:53;100465.17;;;1.70;65.83
38452;BME280;24231;52.514;13.438;2022-11-20T11:40:22;100458.55;;;0.60;70.00
38452;BME280;24231;52.514;13.438;2022-11-20T11:42:54;100453.11;;;2.17;65.81
38452;BME280;24231;52.514;13.438;2022-11-20T11:45:24;100455.02;;;2.31;64.30
38452;BME280;24231;52.514;13.438;2022-11-20T11:47:51;100448.31;;;3.19;61.89
38452;BME280;24231;52.514;13.438;2022-11-20T11:50:22;100455.25;;;2.25;64.59
38452;BME280;24231;52.514;13.438;2022-11-20T11:53:00;100452.27;;;1.68;66.67
38452;BME280;24231;52.514;13.438;2022-11-20T11:55:33;100450.19;;;2.72;63.12
38452;BME280;24231;52.514;13.438;2022-11-20T11:58:11;100453.69;;;1.93;65.14
38452;BME280;24231;52.514;13.438;2022-11-20T12:00:49;100450.72;;;1.68;68.11
38452;BME280;24231;52.514;13.438;2022-11-20T12:03:22;100442.31;;;3.29;62.30
38452;BME280;24231;52.514;13.438;2022-11-20T12:05:55;100448.27;;;2.28;67.60
38452;BME280;24231;52.514;13.438;2022-11-20T12:08:26;100450.85;;;1.54;69.17
38452;BME280;24231;52.514;13.438;2022-11-20T12:10:58;100444.17;;;2.50;66.74
38452;BME280;24231;52.514;13.438;2022-11-20T12:13:37;100448.30;;;2.42;67.74
38452;BME280;24231;52.514;13.438;2022-11-20T12:16:12;100446.21;;;1.48;72.90
38452;BME280;24231;52.514;13.438;2022-11-20T12:18:41;100445.01;;;1.38;70.78
38452;BME280;24231;52.514;13.438;2022-11-20T12:21:18;100443.56;;;1.43;70.88
38452;BME280;24231;52.514;13.438;2022-11-20T12:23:59;100438.64;;;1.55;71.96
38452;BME280;24231;52.514;13.438;2022-11-20T12:26:41;100438.07;;;2.04;70.42
38452;BME280;24231;52.514;13.438;2022-11-20T12:29:15;100423.22;;;2.97;67.21
38452;BME280;24231;52.514;13.438;2022-11-20T12:31:58;100428.54;;;2.67;67.86
38452;BME280;24231;52.514;13.438;2022-11-20T12:34:44;100423.34;;;3.64;63.68
38452;BME280;24231;52.514;13.438;2022-11-20T12:37:24;100426.54;;;4.28;61.37
38452;BME280;24231;52.514;13.438;2022-11-20T12:40:00;100431.51;;;2.31;66.44
38452;BME280;24231;52.514;13.438;2022-11-20T12:42:43;100423.88;;;2.37;67.23
38452;BME280;24231;52.514;13.438;2022-11-20T12:45:27;100411.43;;;2.57;65.50
38452;BME280;24231;52.514;13.438;2022-11-20T12:48:16;100409.25;;;3.04;62.94
38452;BME280;24231;52.514;13.438;2022-11-20T12:50:54;100404.18;;;3.07;63.74
38452;BME280;24231;52.514;13.438;2022-11-20T12:53:33;100405.13;;;2.00;67.40
38452;BME280;24231;52.514;13.438;2022-11-20T12:56:13;100402.83;;;2.47;66.21
38452;BME280;24231;52.514;13.438;2022-11-20T12:58:57;100408.46;;;1.54;68.27
38452;BME280;24231;52.514;13.438;2022-11-20T13:01:33;100407.50;;;2.13;66.29
38452;BME280;24231;52.514;13.438;2022-11-20T13:04:09;100400.67;;;2.58;64.38
38452;BME280;24231;52.514;13.438;2022-11-20T13:06:44;100396.73;;;2.90;63.29
38452;BME280;24231;52.514;13.438;2022-11-20T13:09:13;100398.33;;;1.48;67.11